createdAt,value
2022-07-25T00:01:01.479Z,39.83
2022-07-25T00:03:28.641Z,39.88
2022-07-25T00:05:54.860Z,39.87
2022-07-25T00:08:20.998Z,39.88
2022-07-25T00:10:47.139Z,39.99
2022-07-25T00:13:13.285Z,39.96
2022-07-25T00:15:39.517Z,39.94
2022-07-25T00:18:05.700Z,40.09
2022-07-25T00:20:31.928Z,40.07
2022-07-25T00:22:58.379Z,40.04
2022-07-25T00:25:24.509Z,40.12
2022-07-25T00:27:50.653Z,40.13
2022-07-25T00:30:16.840Z,40.18
2022-07-25T00:32:42.968Z,40.28
2022-07-25T00:35:09.109Z,40.51
2022-07-25T00:37:35.261Z,40.59
2022-07-25T00:40:01.401Z,40.54
2022-07-25T00:42:27.539Z,40.74
2022-07-25T00:44:53.697Z,40.73
2022-07-25T00:47:19.830Z,40.72
2022-07-25T00:49:45.983Z,40.62
2022-07-25T00:52:12.142Z,40.54
2022-07-25T00:54:38.283Z,40.44
2022-07-25T00:57:04.659Z,40.72
2022-07-25T00:59:31.101Z,40.63
2022-07-25T01:01:57.326Z,40.66
2022-07-25T01:04:23.545Z,40.73
2022-07-25T01:06:49.714Z,40.85
2022-07-25T01:09:15.863Z,41.02
2022-07-25T01:11:41.997Z,40.89
2022-07-25T01:14:08.394Z,40.99
2022-07-25T01:16:34.846Z,40.97
2022-07-25T01:19:00.973Z,41.06
2022-07-25T01:21:27.126Z,40.99
2022-07-25T01:23:53.266Z,41.16
2022-07-25T01:26:19.398Z,41.13
2022-07-25T01:28:45.560Z,41.30
2022-07-25T01:31:11.740Z,41.13
2022-07-25T01:33:37.950Z,41.30
2022-07-25T01:36:04.114Z,41.36
2022-07-25T01:38:30.246Z,41.41
2022-07-25T01:40:56.364Z,41.48
2022-07-25T01:43:22.531Z,41.36
2022-07-25T01:45:48.711Z,41.51
2022-07-25T01:48:14.876Z,41.47
2022-07-25T01:50:43.066Z,41.59
2022-07-25T01:53:09.227Z,41.69
2022-07-25T01:55:35.373Z,41.75
2022-07-25T01:58:02.730Z,41.75
2022-07-25T02:00:29.123Z,41.79
2022-07-25T02:02:55.257Z,41.94
2022-07-25T02:05:21.471Z,41.84
2022-07-25T02:07:47.603Z,42.02
2022-07-25T02:10:13.744Z,42.03
2022-07-25T02:12:39.897Z,42.24
2022-07-25T02:15:06.050Z,42.19
2022-07-25T02:17:32.215Z,42.31
2022-07-25T02:19:58.382Z,42.29
2022-07-25T02:22:24.536Z,42.40
2022-07-25T02:24:50.679Z,42.43
2022-07-25T02:27:16.824Z,42.37
2022-07-25T02:29:42.959Z,42.46
2022-07-25T02:32:09.091Z,42.53
2022-07-25T02:34:35.263Z,42.46
2022-07-25T02:37:01.394Z,42.58
2022-07-25T02:39:27.529Z,42.59
2022-07-25T02:41:53.700Z,42.67
2022-07-25T02:44:19.849Z,42.63
2022-07-25T02:46:45.995Z,42.63
2022-07-25T02:49:13.182Z,42.73
2022-07-25T02:51:39.458Z,42.70
2022-07-25T02:54:05.597Z,42.80
2022-07-25T02:56:32.015Z,42.65
2022-07-25T02:58:58.347Z,42.82
2022-07-25T03:01:24.540Z,42.78
2022-07-25T03:03:50.857Z,42.81
2022-07-25T03:06:17.062Z,42.92
2022-07-25T03:08:43.225Z,42.81
2022-07-25T03:11:09.397Z,42.84
2022-07-25T03:13:35.553Z,42.88
2022-07-25T03:16:01.800Z,42.93
2022-07-25T03:18:27.960Z,42.88
2022-07-25T03:20:54.098Z,43.02
2022-07-25T03:23:20.237Z,42.93
2022-07-25T03:25:46.738Z,43.16
2022-07-25T03:28:12.873Z,43.00
2022-07-25T03:30:39.009Z,43.03
2022-07-25T03:33:05.186Z,42.88
2022-07-25T03:35:31.330Z,42.91
2022-07-25T03:37:57.469Z,42.94
2022-07-25T03:40:23.634Z,43.07
2022-07-25T03:42:49.819Z,43.02
2022-07-25T03:45:15.972Z,43.10
2022-07-25T03:47:42.117Z,43.16
2022-07-25T03:50:08.269Z,43.16
2022-07-25T03:52:34.414Z,43.12
2022-07-25T03:55:00.575Z,42.92
2022-07-25T03:57:26.697Z,42.92
2022-07-25T03:59:52.827Z,43.17
2022-07-25T04:02:19.051Z,43.06
2022-07-25T04:04:45.217Z,43.11
2022-07-25T04:07:11.350Z,43.10
2022-07-25T04:09:37.556Z,43.11
2022-07-25T04:12:03.681Z,43.32
2022-07-25T04:14:29.822Z,43.31
2022-07-25T04:16:56.008Z,43.22
2022-07-25T04:19:22.188Z,43.14
2022-07-25T04:21:48.490Z,43.08
2022-07-25T04:24:14.644Z,43.38
2022-07-25T04:26:40.791Z,43.21
2022-07-25T04:29:06.919Z,43.15
2022-07-25T04:31:33.134Z,43.23
2022-07-25T04:33:59.303Z,43.19
2022-07-25T04:36:25.442Z,43.29
2022-07-25T04:38:51.606Z,43.17
2022-07-25T04:41:17.728Z,43.21
2022-07-25T04:43:48.554Z,43.22
2022-07-25T04:46:15.263Z,43.29
2022-07-25T04:48:41.566Z,43.31
2022-07-25T04:51:12.398Z,43.12
2022-07-25T04:53:38.555Z,43.22
2022-07-25T04:56:04.676Z,43.03
2022-07-25T04:58:30.806Z,43.06
2022-07-25T05:00:57.535Z,42.92
2022-07-25T05:03:23.687Z,42.83
2022-07-25T05:05:49.805Z,42.85
2022-07-25T05:08:15.960Z,42.80
2022-07-25T05:10:42.086Z,42.79
2022-07-25T05:13:08.217Z,42.65
2022-07-25T05:15:34.736Z,42.53
2022-07-25T05:18:00.880Z,42.64
2022-07-25T05:20:27.031Z,42.54
2022-07-25T05:22:53.194Z,42.52
2022-07-25T05:25:19.317Z,42.35
2022-07-25T05:27:45.461Z,42.58
2022-07-25T05:30:11.629Z,42.52
2022-07-25T05:32:37.771Z,42.52
2022-07-25T05:35:03.898Z,42.53
2022-07-25T05:37:30.052Z,42.43
2022-07-25T05:39:56.196Z,42.26
2022-07-25T05:42:22.337Z,42.23
2022-07-25T05:44:48.515Z,42.29
2022-07-25T05:47:14.645Z,42.26
2022-07-25T05:49:40.786Z,42.25
2022-07-25T05:52:12.587Z,42.04
2022-07-25T05:54:39.314Z,42.24
2022-07-25T05:57:05.441Z,42.20
2022-07-25T05:59:31.599Z,42.20
2022-07-25T06:01:57.860Z,42.32
2022-07-25T06:04:27.154Z,42.32
2022-07-25T06:06:53.578Z,42.39
2022-07-25T06:09:19.732Z,42.33
2022-07-25T06:11:54.624Z,42.38
2022-07-25T06:14:26.901Z,42.44
2022-07-25T06:16:53.136Z,42.55
2022-07-25T06:19:19.270Z,42.40
2022-07-25T06:21:45.444Z,42.46
2022-07-25T06:24:11.604Z,42.32
2022-07-25T06:26:37.743Z,42.25
2022-07-25T06:29:03.959Z,42.13
2022-07-25T06:31:30.117Z,42.12
2022-07-25T06:33:56.281Z,42.16
2022-07-25T06:36:22.455Z,42.05
2022-07-25T06:38:58.608Z,42.01
2022-07-25T06:41:24.829Z,41.98
2022-07-25T06:43:50.970Z,41.99
2022-07-25T06:46:17.156Z,41.90
2022-07-25T06:48:43.394Z,41.89
2022-07-25T06:51:09.586Z,41.76
2022-07-25T06:53:35.738Z,41.75
2022-07-25T06:56:01.917Z,41.40
2022-07-25T06:58:28.188Z,41.50
2022-07-25T07:00:54.356Z,41.06
2022-07-25T07:03:20.648Z,40.85
2022-07-25T07:05:46.843Z,40.88
2022-07-25T07:08:13.000Z,40.82
2022-07-25T07:10:39.180Z,40.47
2022-07-25T07:13:05.580Z,40.35
2022-07-25T07:15:33.900Z,40.46
2022-07-25T07:18:00.354Z,40.35
2022-07-25T07:20:29.508Z,40.22
2022-07-25T07:22:55.633Z,39.94
2022-07-25T07:25:24.058Z,39.86
2022-07-25T07:27:54.442Z,39.83
2022-07-25T07:30:24.442Z,39.60
2022-07-25T07:32:51.607Z,39.41
2022-07-25T07:35:17.734Z,39.13
2022-07-25T07:37:43.967Z,39.20
2022-07-25T07:40:10.151Z,39.20
2022-07-25T07:42:43.911Z,39.05
2022-07-25T07:45:10.041Z,39.03
2022-07-25T07:47:36.220Z,39.11
2022-07-25T07:50:02.358Z,38.84
2022-07-25T07:52:28.486Z,38.98
2022-07-25T07:54:59.203Z,38.88
2022-07-25T07:57:25.611Z,38.58
2022-07-25T07:59:51.751Z,38.76
2022-07-25T08:02:17.973Z,38.74
2022-07-25T08:04:44.174Z,38.67
2022-07-25T08:07:10.373Z,38.88
2022-07-25T08:09:36.521Z,38.84
2022-07-25T08:12:02.654Z,38.78
2022-07-25T08:14:28.802Z,38.73
2022-07-25T08:16:54.962Z,38.70
2022-07-25T08:19:21.477Z,39.03
2022-07-25T08:21:47.618Z,39.08
2022-07-25T08:24:13.797Z,39.09
2022-07-25T08:26:40.035Z,38.99
2022-07-25T08:29:18.784Z,39.36
2022-07-25T08:31:45.755Z,39.18
2022-07-25T08:34:11.964Z,39.52
2022-07-25T08:36:38.084Z,39.41
2022-07-25T08:39:04.245Z,39.10
2022-07-25T08:41:30.383Z,39.13
2022-07-25T08:43:56.523Z,39.23
2022-07-25T08:46:22.705Z,39.46
2022-07-25T08:48:48.920Z,39.19
2022-07-25T08:51:15.199Z,39.06
2022-07-25T08:53:41.358Z,38.98
2022-07-25T08:56:13.355Z,38.73
2022-07-25T08:58:40.891Z,38.84
2022-07-25T09:01:07.058Z,38.37
2022-07-25T09:03:33.196Z,38.91
2022-07-25T09:05:59.338Z,38.50
2022-07-25T09:08:25.501Z,38.49
2022-07-25T09:10:51.627Z,38.52
2022-07-25T09:13:17.761Z,38.12
2022-07-25T09:15:43.955Z,38.42
2022-07-25T09:18:10.849Z,38.18
2022-07-25T09:20:37.153Z,38.08
2022-07-25T09:23:03.367Z,38.01
2022-07-25T09:25:29.514Z,38.26
2022-07-25T09:27:55.707Z,38.26
2022-07-25T09:30:21.864Z,38.30
2022-07-25T09:32:48.031Z,38.49
2022-07-25T09:35:14.178Z,38.34
2022-07-25T09:37:40.320Z,38.08
2022-07-25T09:40:06.451Z,38.42
2022-07-25T09:42:34.728Z,38.42
2022-07-25T09:45:00.901Z,38.50
2022-07-25T09:47:27.031Z,38.81
2022-07-25T09:49:53.188Z,38.70
2022-07-25T09:52:19.358Z,38.71
2022-07-25T09:54:45.499Z,39.20
2022-07-25T09:57:11.630Z,38.99
2022-07-25T09:59:37.790Z,39.19
2022-07-25T10:02:04.013Z,39.09
2022-07-25T10:04:30.214Z,38.96
2022-07-25T10:06:56.396Z,38.55
2022-07-25T10:09:22.529Z,38.31
2022-07-25T10:11:49.375Z,37.94
2022-07-25T10:14:16.040Z,37.68
2022-07-25T10:16:42.208Z,37.58
2022-07-25T10:19:08.404Z,37.44
2022-07-25T10:21:34.557Z,37.32
2022-07-25T10:24:00.701Z,37.00
2022-07-25T10:26:26.846Z,37.05
2022-07-25T10:28:53.942Z,37.06
2022-07-25T10:31:20.115Z,36.64
2022-07-25T10:33:46.281Z,36.74
2022-07-25T10:36:12.456Z,36.59
2022-07-25T10:38:38.590Z,36.84
2022-07-25T10:41:04.769Z,37.00
2022-07-25T10:43:30.938Z,37.29
2022-07-25T10:45:57.162Z,37.32
2022-07-25T10:48:23.351Z,37.82
2022-07-25T10:50:57.081Z,37.98
2022-07-25T10:53:23.431Z,38.16
2022-07-25T10:56:05.096Z,38.35
2022-07-25T10:58:31.734Z,38.28
2022-07-25T11:00:57.915Z,38.44
2022-07-25T11:03:24.117Z,38.33
2022-07-25T11:05:50.273Z,38.45
2022-07-25T11:08:23.649Z,38.70
2022-07-25T11:10:49.789Z,38.87
2022-07-25T11:13:15.935Z,38.76
2022-07-25T11:15:42.072Z,39.28
2022-07-25T11:18:08.203Z,39.29
2022-07-25T11:20:34.360Z,39.08
2022-07-25T11:23:00.498Z,39.49
2022-07-25T11:25:26.622Z,39.38
2022-07-25T11:27:52.779Z,39.71
2022-07-25T11:30:18.908Z,39.32
2022-07-25T11:32:45.046Z,39.60
2022-07-25T11:35:11.805Z,39.55
2022-07-25T11:37:37.936Z,39.86
2022-07-25T11:40:04.625Z,39.85
2022-07-25T11:42:30.783Z,40.08
2022-07-25T11:44:56.906Z,39.79
2022-07-25T11:47:23.033Z,39.75
2022-07-25T11:49:49.177Z,39.77
2022-07-25T11:52:15.304Z,39.62
2022-07-25T11:54:41.446Z,39.09
2022-07-25T11:57:07.609Z,38.72
2022-07-25T11:59:33.746Z,38.84
2022-07-25T12:01:59.939Z,38.84
2022-07-25T12:04:26.147Z,38.32
2022-07-25T12:06:52.285Z,38.63
2022-07-25T12:09:19.426Z,38.78
2022-07-25T12:11:45.805Z,38.87
2022-07-25T12:14:11.948Z,38.67
2022-07-25T12:16:38.126Z,38.55
2022-07-25T12:19:04.659Z,38.57
2022-07-25T12:21:30.943Z,38.74
2022-07-25T12:23:57.206Z,38.97
2022-07-25T12:26:23.363Z,39.47
2022-07-25T12:28:49.498Z,39.56
2022-07-25T12:31:15.681Z,39.76
2022-07-25T12:33:41.919Z,40.03
2022-07-25T12:36:08.624Z,40.19
2022-07-25T12:38:34.946Z,40.24
2022-07-25T12:41:01.107Z,40.40
2022-07-25T12:43:27.244Z,40.55
2022-07-25T12:45:53.529Z,40.76
2022-07-25T12:48:19.762Z,41.01
2022-07-25T12:50:45.915Z,40.71
2022-07-25T12:53:12.059Z,40.66
2022-07-25T12:55:38.231Z,40.76
2022-07-25T12:58:04.375Z,40.92
2022-07-25T13:00:30.513Z,41.38
2022-07-25T13:02:56.716Z,41.20
2022-07-25T13:05:22.874Z,41.12
2022-07-25T13:07:49.037Z,40.82
2022-07-25T13:10:15.184Z,40.57
2022-07-25T13:12:41.318Z,40.98
2022-07-25T13:15:07.450Z,40.60
2022-07-25T13:17:33.612Z,40.81
2022-07-25T13:19:59.820Z,40.16
2022-07-25T13:22:26.049Z,40.17
2022-07-25T13:24:52.205Z,40.07
2022-07-25T13:27:18.341Z,40.08
2022-07-25T13:29:44.480Z,39.81
2022-07-25T13:32:11.525Z,39.82
2022-07-25T13:34:37.707Z,39.78
2022-07-25T13:37:03.838Z,40.11
2022-07-25T13:39:30.319Z,40.29
2022-07-25T13:41:56.477Z,39.93
2022-07-25T13:44:22.615Z,39.65
2022-07-25T13:46:48.771Z,39.47
2022-07-25T13:49:14.991Z,39.47
2022-07-25T13:51:41.149Z,39.72
2022-07-25T13:54:07.289Z,39.69
2022-07-25T13:56:33.420Z,39.58
2022-07-25T13:58:59.579Z,39.55
2022-07-25T14:01:25.805Z,39.24
2022-07-25T14:03:52.014Z,39.09
2022-07-25T14:06:18.204Z,38.99
2022-07-25T14:08:44.360Z,39.17
2022-07-25T14:11:10.527Z,39.07
2022-07-25T14:13:36.658Z,38.99
2022-07-25T14:16:02.823Z,38.83
2022-07-25T14:18:28.963Z,38.62
2022-07-25T14:20:55.101Z,38.51
2022-07-25T14:23:21.594Z,38.87
2022-07-25T14:25:47.731Z,39.37
2022-07-25T14:28:13.867Z,39.72
2022-07-25T14:30:40.217Z,39.56
2022-07-25T14:33:06.373Z,38.86
2022-07-25T14:35:32.947Z,38.51
2022-07-25T14:37:59.165Z,38.83
2022-07-25T14:40:25.319Z,38.99
2022-07-25T14:42:51.473Z,39.25
2022-07-25T14:45:17.625Z,39.52
2022-07-25T14:47:43.768Z,39.70
2022-07-25T14:50:09.920Z,39.99
2022-07-25T14:52:36.091Z,40.81
2022-07-25T14:55:02.245Z,41.29
2022-07-25T14:57:28.398Z,41.23
2022-07-25T14:59:54.542Z,42.13
2022-07-25T15:02:20.664Z,42.13
2022-07-25T15:04:46.894Z,42.46
2022-07-25T15:07:13.097Z,42.44
2022-07-25T15:09:39.240Z,42.45
2022-07-25T15:12:05.392Z,42.49
2022-07-25T15:14:31.550Z,42.90
2022-07-25T15:16:57.754Z,42.94
2022-07-25T15:19:23.925Z,43.00
2022-07-25T15:21:52.033Z,42.70
2022-07-25T15:24:18.155Z,42.96
2022-07-25T15:26:44.298Z,43.02
2022-07-25T15:29:11.319Z,42.99
2022-07-25T15:31:37.832Z,42.73
2022-07-25T15:34:04.038Z,42.56
2022-07-25T15:36:30.196Z,42.48
2022-07-25T15:38:56.324Z,41.91
2022-07-25T15:41:22.452Z,41.95
2022-07-25T15:43:49.017Z,42.02
2022-07-25T15:46:15.161Z,41.92
2022-07-25T15:48:41.383Z,42.11
2022-07-25T15:51:07.563Z,42.26
2022-07-25T15:53:33.708Z,42.59
2022-07-25T15:55:59.855Z,42.65
2022-07-25T15:58:26.064Z,42.78
2022-07-25T16:00:52.230Z,43.18
2022-07-25T16:03:18.410Z,43.77
2022-07-25T16:05:44.563Z,43.98
2022-07-25T16:08:10.702Z,44.37
2022-07-25T16:10:36.829Z,44.86
2022-07-25T16:13:02.993Z,44.67
2022-07-25T16:15:29.126Z,44.68
2022-07-25T16:17:58.817Z,44.34
2022-07-25T16:20:28.109Z,44.70
2022-07-25T16:22:54.241Z,45.12
2022-07-25T16:25:20.371Z,45.66
2022-07-25T16:27:46.518Z,46.00
2022-07-25T16:30:12.663Z,46.26
2022-07-25T16:32:38.811Z,46.52
2022-07-25T16:35:04.980Z,46.57
2022-07-25T16:37:31.113Z,46.96
2022-07-25T16:39:57.242Z,47.97
2022-07-25T16:42:23.410Z,48.69
2022-07-25T16:44:49.537Z,48.74
2022-07-25T16:47:15.684Z,49.05
2022-07-25T16:49:42.326Z,49.06
2022-07-25T16:52:08.466Z,48.88
2022-07-25T16:54:34.730Z,48.89
2022-07-25T16:57:00.892Z,48.72
2022-07-25T16:59:27.047Z,48.63
2022-07-25T17:01:53.257Z,48.43
2022-07-25T17:04:19.493Z,48.27
2022-07-25T17:06:45.637Z,47.94
2022-07-25T17:09:11.772Z,47.71
2022-07-25T17:11:37.944Z,47.36
2022-07-25T17:14:04.084Z,46.40
2022-07-25T17:16:30.339Z,44.60
2022-07-25T17:18:56.527Z,43.25
2022-07-25T17:21:22.666Z,42.73
2022-07-25T17:23:48.799Z,42.20
2022-07-25T17:26:14.962Z,40.91
2022-07-25T17:28:41.086Z,40.77
2022-07-25T17:31:07.261Z,40.61
2022-07-25T17:33:33.484Z,40.56
2022-07-25T17:35:59.623Z,41.01
2022-07-25T17:38:28.432Z,41.93
2022-07-25T17:40:56.511Z,43.31
2022-07-25T17:43:22.637Z,44.30
2022-07-25T17:45:48.776Z,44.48
2022-07-25T17:48:14.956Z,44.08
2022-07-25T17:50:41.085Z,44.37
2022-07-25T17:53:07.222Z,44.90
2022-07-25T17:55:38.551Z,44.40
2022-07-25T17:58:05.238Z,43.75
2022-07-25T18:00:31.370Z,43.49
2022-07-25T18:02:57.579Z,42.52
2022-07-25T18:05:23.751Z,41.49
2022-07-25T18:07:49.879Z,41.03
2022-07-25T18:10:16.034Z,40.55
2022-07-25T18:12:42.177Z,40.13
2022-07-25T18:15:08.315Z,39.94
2022-07-25T18:17:34.586Z,39.60
2022-07-25T18:20:00.718Z,39.60
2022-07-25T18:22:26.856Z,39.75
2022-07-25T18:24:52.999Z,39.90
2022-07-25T18:27:19.132Z,40.05
2022-07-25T18:29:45.249Z,40.61
2022-07-25T18:32:11.403Z,41.77
2022-07-25T18:34:37.538Z,42.28
2022-07-25T18:37:03.671Z,42.44
2022-07-25T18:39:29.818Z,42.57
2022-07-25T18:41:55.958Z,42.67
2022-07-25T18:44:22.094Z,42.86
2022-07-25T18:46:48.813Z,42.90
2022-07-25T18:49:15.162Z,43.16
2022-07-25T18:51:41.362Z,43.26
2022-07-25T18:54:08.429Z,43.49
2022-07-25T18:56:34.750Z,43.75
2022-07-25T18:59:00.885Z,43.97
2022-07-25T19:01:28.817Z,44.55
2022-07-25T19:03:55.627Z,44.97
2022-07-25T19:06:21.829Z,45.01
2022-07-25T19:08:48.005Z,45.12
2022-07-25T19:11:14.150Z,45.33
2022-07-25T19:13:49.602Z,45.56
2022-07-25T19:16:16.817Z,45.80
2022-07-25T19:18:43.020Z,46.11
2022-07-25T19:21:09.137Z,45.89
2022-07-25T19:23:35.293Z,46.33
2022-07-25T19:26:01.488Z,46.40
2022-07-25T19:28:27.626Z,46.19
2022-07-25T19:30:53.944Z,45.82
2022-07-25T19:33:20.190Z,45.68
2022-07-25T19:35:46.322Z,45.31
2022-07-25T19:38:12.475Z,45.11
2022-07-25T19:40:38.611Z,45.04
2022-07-25T19:43:04.738Z,44.95
2022-07-25T19:45:30.882Z,44.90
2022-07-25T19:47:57.022Z,44.83
2022-07-25T19:50:23.159Z,44.83
2022-07-25T19:52:49.310Z,44.98
2022-07-25T19:55:15.436Z,45.03
2022-07-25T19:57:41.558Z,44.94
2022-07-25T20:00:07.752Z,44.81
2022-07-25T20:02:33.954Z,44.91
2022-07-25T20:05:00.595Z,45.18
2022-07-25T20:07:26.734Z,45.27
2022-07-25T20:09:52.927Z,45.43
2022-07-25T20:12:19.066Z,45.38
2022-07-25T20:14:45.223Z,45.45
2022-07-25T20:17:11.411Z,45.61
2022-07-25T20:19:37.612Z,45.59
2022-07-25T20:22:03.776Z,45.61
2022-07-25T20:24:29.961Z,45.65
2022-07-25T20:26:56.116Z,45.78
2022-07-25T20:29:22.270Z,45.86
2022-07-25T20:31:48.441Z,45.97
2022-07-25T20:34:14.576Z,46.07
2022-07-25T20:36:40.783Z,46.09
2022-07-25T20:39:07.275Z,46.21
2022-07-25T20:41:35.030Z,46.08
2022-07-25T20:44:01.203Z,46.15
2022-07-25T20:46:27.369Z,46.49
2022-07-25T20:48:53.626Z,46.42
2022-07-25T20:51:19.982Z,46.38
2022-07-25T20:53:46.143Z,46.46
2022-07-25T20:56:19.878Z,46.54
2022-07-25T20:58:46.022Z,46.53
2022-07-25T21:01:12.263Z,46.58
2022-07-25T21:03:38.455Z,46.61
2022-07-25T21:06:04.622Z,46.64
2022-07-25T21:08:30.759Z,46.75
2022-07-25T21:10:56.885Z,46.78
2022-07-25T21:13:23.054Z,46.69
2022-07-25T21:15:49.194Z,46.89
2022-07-25T21:18:17.605Z,46.94
2022-07-25T21:20:43.753Z,46.68
2022-07-25T21:23:09.880Z,46.81
2022-07-25T21:25:36.335Z,46.83
2022-07-25T21:28:02.477Z,47.01
2022-07-25T21:30:28.627Z,47.00
2022-07-25T21:32:54.757Z,46.97
2022-07-25T21:35:20.911Z,46.96
2022-07-25T21:37:47.055Z,47.18
2022-07-25T21:40:13.206Z,47.18
2022-07-25T21:42:39.348Z,47.48
2022-07-25T21:45:05.508Z,47.26
2022-07-25T21:47:31.635Z,47.71
2022-07-25T21:49:57.803Z,47.81
2022-07-25T21:52:26.622Z,47.84
2022-07-25T21:55:00.394Z,47.73
2022-07-25T21:57:26.524Z,47.92
2022-07-25T21:59:52.689Z,47.96
2022-07-25T22:02:19.164Z,48.18
2022-07-25T22:04:45.301Z,48.25
2022-07-25T22:07:11.434Z,48.32
2022-07-25T22:09:37.596Z,48.39
2022-07-25T22:12:03.735Z,48.41
2022-07-25T22:14:29.860Z,48.47
2022-07-25T22:16:56.098Z,48.38
2022-07-25T22:19:22.735Z,48.49
2022-07-25T22:21:49.017Z,48.58
2022-07-25T22:24:15.186Z,48.68
2022-07-25T22:26:41.331Z,48.99
2022-07-25T22:29:07.807Z,48.88
2022-07-25T22:31:34.367Z,49.18
2022-07-25T22:34:00.582Z,49.29
2022-07-25T22:36:26.722Z,49.64
2022-07-25T22:38:52.879Z,50.19
2022-07-25T22:41:19.023Z,50.23
2022-07-25T22:43:58.394Z,50.34
2022-07-25T22:46:25.755Z,50.48
2022-07-25T22:48:52.021Z,50.48
2022-07-25T22:51:18.245Z,50.75
2022-07-25T22:53:44.432Z,51.18
2022-07-25T22:56:10.560Z,51.65
2022-07-25T22:58:36.708Z,52.09
2022-07-25T23:01:02.883Z,52.19
2022-07-25T23:03:31.550Z,52.36
2022-07-25T23:05:59.209Z,52.71
2022-07-25T23:08:25.641Z,52.64
2022-07-25T23:10:51.777Z,52.71
2022-07-25T23:13:17.941Z,53.02
2022-07-25T23:15:51.116Z,53.10
2022-07-25T23:18:17.670Z,53.44
2022-07-25T23:20:43.817Z,53.61
2022-07-25T23:23:09.981Z,53.97
2022-07-25T23:25:36.119Z,54.03
2022-07-25T23:28:02.277Z,54.34
2022-07-25T23:30:28.431Z,54.70
2022-07-25T23:32:54.577Z,54.77
2022-07-25T23:35:20.721Z,55.04
2022-07-25T23:37:46.877Z,55.17
2022-07-25T23:40:13.017Z,55.09
2022-07-25T23:42:39.147Z,55.65
2022-07-25T23:45:05.807Z,55.94
2022-07-25T23:47:39.248Z,55.99
2022-07-25T23:50:05.932Z,56.13
2022-07-25T23:52:32.085Z,56.24
2022-07-25T23:54:58.227Z,56.25
2022-07-25T23:57:24.348Z,56.42
2022-07-25T23:59:50.491Z,56.45
